Time;durP1;ratioP1;P1;durP2;ratioP2;P2;SDS_P1;SDS_P2;PMS_P1;PMS_P2;Temp;Humidity;BMP_temperature;BMP_pressure;BME280_temperature;BME280_humidity;BME280_pressure;Samples;Min_cycle;Max_cycle;Signal;HPM_P1;HPM_P2
2021/01/19 00:01:37;;;;;;;23.42;13.60;;;9.70;75.60;;;;;;5064330;28;20119;-70
2021/01/19 00:04:03;;;;;;;24.27;13.80;;;9.80;75.10;;;;;;5067591;28;20028;-70
2021/01/19 00:06:28;;;;;;;20.23;12.77;;;9.80;75.70;;;;;;5042000;28;20051;-70
2021/01/19 00:08:54;;;;;;;23.35;13.55;;;9.90;75.00;;;;;;5052478;28;20036;-70
2021/01/19 00:11:20;;;;;;;21.38;13.85;;;9.80;75.50;;;;;;5049748;28;20566;-70
2021/01/19 00:13:45;;;;;;;24.60;13.82;;;9.90;74.70;;;;;;5064028;28;20043;-70
2021/01/19 00:16:11;;;;;;;21.02;14.02;;;9.80;75.30;;;;;;5058913;28;20036;-70
2021/01/19 00:18:36;;;;;;;21.25;12.63;;;9.80;75.30;;;;;;5066894;28;20590;-70
2021/01/19 00:21:04;;;;;;;25.75;13.80;;;9.80;75.30;;;;;;5068437;28;20033;-70
2021/01/19 00:23:29;;;;;;;20.05;12.05;;;9.90;75.40;;;;;;5066346;28;20032;-70
2021/01/19 00:25:55;;;;;;;20.55;11.88;;;9.90;74.80;;;;;;5052618;28;20439;-70
2021/01/19 00:28:21;;;;;;;21.58;13.45;;;9.80;75.40;;;;;;5032332;28;20048;-69
2021/01/19 00:30:46;;;;;;;19.83;11.80;;;9.80;75.20;;;;;;5070034;28;20035;-70
2021/01/19 00:33:12;;;;;;;20.08;11.88;;;9.90;75.30;;;;;;5057821;28;20463;-69
2021/01/19 00:35:41;;;;;;;19.70;11.45;;;9.90;74.40;;;;;;5063324;28;20170;-69
2021/01/19 00:38:08;;;;;;;19.63;10.63;;;9.80;74.90;;;;;;5063686;28;20040;-69
2021/01/19 00:40:34;;;;;;;24.20;10.48;;;9.90;74.90;;;;;;5059079;28;20032;-69
2021/01/19 00:43:00;;;;;;;17.20;10.20;;;9.80;74.30;;;;;;5058263;28;20028;-70
2021/01/19 00:45:27;;;;;;;15.75;9.32;;;9.80;74.20;;;;;;5053257;28;20035;-70
2021/01/19 00:47:52;;;;;;;18.88;9.82;;;9.70;74.70;;;;;;5069005;28;20025;-70
2021/01/19 00:50:18;;;;;;;17.48;8.80;;;9.80;74.00;;;;;;5065002;28;20051;-70
2021/01/19 00:52:44;;;;;;;21.45;9.13;;;9.70;74.40;;;;;;5070228;28;20044;-69
2021/01/19 00:55:11;;;;;;;17.15;8.23;;;9.70;74.30;;;;;;5053894;28;20037;-70
2021/01/19 00:57:37;;;;;;;22.40;9.07;;;9.70;74.40;;;;;;5045762;28;20052;-70
2021/01/19 01:00:07;;;;;;;17.73;8.43;;;9.70;74.20;;;;;;5035671;28;20037;-70
2021/01/19 01:02:37;;;;;;;15.10;7.38;;;9.70;73.70;;;;;;5031743;28;20095;-70
2021/01/19 01:05:07;;;;;;;16.40;7.57;;;9.80;73.60;;;;;;5048236;28;20098;-70
2021/01/19 01:07:37;;;;;;;15.93;7.55;;;9.70;74.10;;;;;;5043659;28;20128;-71
2021/01/19 01:10:06;;;;;;;11.20;6.43;;;9.80;73.20;;;;;;5037116;28;20174;-70
2021/01/19 01:12:31;;;;;;;17.05;6.53;;;9.70;73.70;;;;;;5046582;28;20040;-70
2021/01/19 01:14:57;;;;;;;10.07;5.50;;;9.80;73.10;;;;;;5029993;28;20041;-70
2021/01/19 01:17:23;;;;;;;14.57;5.88;;;9.70;73.60;;;;;;5018226;28;20041;-71
2021/01/19 01:19:49;;;;;;;14.55;5.10;;;9.70;73.60;;;;;;5012266;28;20037;-70
2021/01/19 01:22:14;;;;;;;12.93;5.72;;;9.70;73.50;;;;;;5016763;28;20056;-70
2021/01/19 01:24:40;;;;;;;16.30;5.40;;;9.70;73.40;;;;;;5018602;28;20546;-70
2021/01/19 01:27:05;;;;;;;12.75;5.47;;;9.70;73.20;;;;;;5044990;28;20047;-70
2021/01/19 01:29:31;;;;;;;14.43;6.85;;;9.80;72.60;;;;;;5040102;28;20044;-70
2021/01/19 01:31:57;;;;;;;15.32;4.97;;;9.70;73.10;;;;;;5034215;28;20045;-70
2021/01/19 01:34:22;;;;;;;16.45;6.10;;;9.80;72.30;;;;;;5029585;28;20028;-70
2021/01/19 01:36:48;;;;;;;13.98;6.53;;;9.80;72.10;;;;;;5040694;28;20434;-70
2021/01/19 01:39:14;;;;;;;18.30;5.20;;;9.70;72.50;;;;;;5031566;28;20037;-70
2021/01/19 01:41:39;;;;;;;11.90;4.78;;;9.70;72.40;;;;;;5040199;28;20057;-70
2021/01/19 01:44:05;;;;;;;17.05;4.78;;;9.70;71.80;;;;;;5014991;28;20045;-70
2021/01/19 01:46:34;;;;;;;17.80;5.25;;;9.70;72.30;;;;;;5043101;28;20037;-70
2021/01/19 01:49:01;;;;;;;13.05;4.95;;;9.70;71.50;;;;;;5050736;28;20035;-70
2021/01/19 01:51:28;;;;;;;14.10;4.78;;;9.70;71.50;;;;;;5047279;28;20135;-69
2021/01/19 01:53:56;;;;;;;15.65;5.57;;;9.60;72.10;;;;;;5047192;28;20112;-69
2021/01/19 01:56:22;;;;;;;11.25;4.85;;;9.60;71.80;;;;;;5038670;28;20093;-69
2021/01/19 01:58:48;;;;;;;11.68;4.35;;;9.70;71.50;;;;;;5061469;28;20041;-70
2021/01/19 02:01:14;;;;;;;10.60;4.15;;;9.70;71.10;;;;;;5057047;28;20052;-70
2021/01/19 02:03:40;;;;;;;13.73;4.28;;;9.70;71.00;;;;;;5065299;28;20610;-70
2021/01/19 02:06:06;;;;;;;9.55;3.75;;;9.60;71.50;;;;;;5054059;28;20016;-69
2021/01/19 02:09:16;;;;;;;11.80;3.95;;;9.60;70.80;;;;;;5069031;28;20055;-69
2021/01/19 02:11:54;;;;;;;13.82;4.78;;;9.60;70.70;;;;;;5066512;28;20037;-70
2021/01/19 02:14:36;;;;;;;12.85;4.35;;;9.60;70.90;;;;;;5052675;28;20033;-69
2021/01/19 02:17:24;;;;;;;11.23;3.67;;;9.50;72.10;;;;;;5054629;28;20083;-70
2021/01/19 02:20:17;;;;;;;10.32;3.78;;;9.60;70.50;;;;;;5058203;28;20450;-69
2021/01/19 02:23:13;;;;;;;13.80;4.18;;;9.50;71.10;;;;;;5052472;28;20029;-70
2021/01/19 02:26:02;;;;;;;10.40;3.53;;;9.60;70.30;;;;;;5056374;28;20033;-70
2021/01/19 02:29:06;;;;;;;10.40;3.60;;;9.60;70.50;;;;;;5052355;28;20033;-70
2021/01/19 02:32:03;;;;;;;7.93;3.60;;;9.50;71.10;;;;;;5062668;28;20044;-70
2021/01/19 02:35:07;;;;;;;11.93;3.83;;;9.60;70.20;;;;;;5067402;28;20048;-70
2021/01/19 02:37:44;;;;;;;11.55;3.63;;;9.50;70.90;;;;;;5013476;28;20049;-70
2021/01/19 02:40:17;;;;;;;11.70;2.88;;;9.60;70.00;;;;;;5025010;28;20029;-70
2021/01/19 02:43:15;;;;;;;9.90;4.28;;;9.50;70.60;;;;;;5034919;28;20087;-70
2021/01/19 02:45:45;;;;;;;8.77;2.85;;;9.50;70.20;;;;;;5045093;28;20456;-70
2021/01/19 02:48:11;;;;;;;12.40;3.58;;;9.60;69.70;;;;;;5055629;28;20027;-69
2021/01/19 02:50:36;;;;;;;14.63;3.40;;;9.50;69.60;;;;;;5068749;28;20032;-69
2021/01/19 02:53:03;;;;;;;9.35;3.28;;;9.40;69.70;;;;;;5052573;28;20028;-70
2021/01/19 02:55:29;;;;;;;12.57;4.10;;;9.40;70.30;;;;;;5068032;28;20550;-70
2021/01/19 02:58:17;;;;;;;16.58;3.83;;;9.40;69.80;;;;;;5068987;28;20147;-70
2021/01/19 03:01:05;;;;;;;10.68;3.83;;;9.30;70.20;;;;;;5060604;28;20498;-70
2021/01/19 03:03:35;;;;;;;6.72;3.47;;;9.30;70.20;;;;;;5069824;28;20039;-70
2021/01/19 03:06:14;;;;;;;11.68;4.50;;;9.30;70.30;;;;;;5057912;28;20475;-69
2021/01/19 03:08:42;;;;;;;12.15;3.53;;;9.30;70.40;;;;;;5053020;28;20508;-69
2021/01/19 03:11:13;;;;;;;10.68;3.70;;;9.40;70.30;;;;;;5069296;28;20025;-69
2021/01/19 03:13:39;;;;;;;12.55;4.60;;;9.40;69.90;;;;;;5058910;28;20025;-70
2021/01/19 03:16:09;;;;;;;9.40;2.90;;;9.30;70.30;;;;;;5048969;28;20032;-69
2021/01/19 03:18:36;;;;;;;13.23;4.70;;;9.30;70.00;;;;;;5053658;28;20717;-69
2021/01/19 03:21:07;;;;;;;11.57;3.83;;;9.40;70.00;;;;;;5065379;28;20056;-70
2021/01/19 03:23:34;;;;;;;10.40;3.45;;;9.30;70.40;;;;;;5057379;28;20039;-70
2021/01/19 03:26:01;;;;;;;14.98;5.05;;;9.40;70.10;;;;;;5066644;28;20038;-69
2021/01/19 03:28:27;;;;;;;11.95;4.28;;;9.40;70.10;;;;;;5066886;28;20540;-69
2021/01/19 03:30:53;;;;;;;11.68;4.68;;;9.30;70.10;;;;;;5068480;28;20040;-70
2021/01/19 03:33:19;;;;;;;15.40;4.65;;;9.20;70.70;;;;;;5058309;28;20024;-70
2021/01/19 03:35:45;;;;;;;12.32;5.13;;;9.20;71.20;;;;;;5069778;28;20489;-70
2021/01/19 03:38:10;;;;;;;15.05;4.32;;;9.20;71.50;;;;;;5061405;28;20072;-69
2021/01/19 03:40:38;;;;;;;14.30;5.20;;;9.30;71.30;;;;;;5063464;28;20094;-70
2021/01/19 03:43:04;;;;;;;12.88;4.78;;;9.30;71.30;;;;;;5069413;28;20055;-69
2021/01/19 03:45:29;;;;;;;14.43;4.43;;;9.20;71.80;;;;;;5036255;28;20467;-69
2021/01/19 03:47:55;;;;;;;11.80;5.50;;;9.20;71.80;;;;;;5046053;28;20062;-70
2021/01/19 03:50:21;;;;;;;11.70;4.90;;;9.20;71.60;;;;;;5062687;28;20128;-69
2021/01/19 03:52:47;;;;;;;17.98;5.10;;;9.30;71.80;;;;;;5059542;28;20028;-69
2021/01/19 03:55:13;;;;;;;12.18;4.50;;;9.20;72.30;;;;;;5050984;28;20382;-69
2021/01/19 03:57:38;;;;;;;14.15;5.00;;;9.20;72.10;;;;;;5054598;28;20045;-69
2021/01/19 04:00:07;;;;;;;12.38;5.82;;;9.10;72.60;;;;;;5046625;28;20114;-70
2021/01/19 04:02:33;;;;;;;14.75;5.10;;;9.10;72.90;;;;;;5043800;28;20491;-70
2021/01/19 04:04:58;;;;;;;14.05;5.68;;;9.10;73.20;;;;;;5008818;28;20123;-70
2021/01/19 04:07:25;;;;;;;9.88;5.25;;;9.10;73.40;;;;;;5046035;28;20582;-69
2021/01/19 04:09:51;;;;;;;14.30;6.10;;;9.10;73.50;;;;;;5030017;28;20033;-69
2021/01/19 04:12:17;;;;;;;13.57;6.22;;;9.10;73.50;;;;;;5026944;28;20083;-70
2021/01/19 04:14:42;;;;;;;17.08;6.25;;;9.20;73.60;;;;;;5046095;28;20025;-70
2021/01/19 04:17:08;;;;;;;11.95;6.78;;;9.20;73.30;;;;;;5040801;28;20082;-69
2021/01/19 04:19:34;;;;;;;16.17;6.68;;;9.20;73.90;;;;;;5041572;28;20124;-70
2021/01/19 04:22:00;;;;;;;18.33;7.07;;;9.10;74.00;;;;;;5021834;28;20565;-69
2021/01/19 04:24:25;;;;;;;13.10;6.03;;;9.10;74.60;;;;;;5042508;28;20040;-70
2021/01/19 04:26:51;;;;;;;12.05;6.65;;;9.10;74.40;;;;;;5032238;28;20037;-69
2021/01/19 04:29:16;;;;;;;13.93;7.45;;;9.10;74.70;;;;;;5025854;28;20052;-70
2021/01/19 04:31:42;;;;;;;14.77;6.63;;;9.00;75.10;;;;;;5042470;28;20486;-70
2021/01/19 04:34:08;;;;;;;16.35;7.68;;;9.00;75.20;;;;;;5023388;28;20116;-70
2021/01/19 04:36:33;;;;;;;12.88;5.60;;;9.00;75.40;;;;;;5043511;28;20029;-69
2021/01/19 04:38:59;;;;;;;16.30;6.22;;;9.10;75.20;;;;;;5036685;28;20087;-70
2021/01/19 04:41:26;;;;;;;19.88;7.95;;;9.00;75.70;;;;;;5023949;28;20041;-70
2021/01/19 04:43:56;;;;;;;12.52;6.18;;;9.00;75.50;;;;;;5043976;28;20033;-69
2021/01/19 04:46:22;;;;;;;14.55;7.40;;;9.00;75.60;;;;;;5040552;28;20336;-69
2021/01/19 04:48:48;;;;;;;13.27;7.10;;;9.00;76.20;;;;;;5047815;28;20041;-70
2021/01/19 04:51:21;;;;;;;11.77;6.50;;;8.90;76.30;;;;;;5052052;28;20037;-70
2021/01/19 04:53:59;;;;;;;12.07;6.38;;;9.00;76.10;;;;;;5041901;28;20018;-69
2021/01/19 04:56:27;;;;;;;12.52;6.00;;;9.00;76.10;;;;;;5046111;28;20037;-69
2021/01/19 04:58:54;;;;;;;12.95;7.15;;;8.90;76.70;;;;;;5046229;28;20040;-70
2021/01/19 05:01:35;;;;;;;10.13;6.07;;;8.90;76.50;;;;;;5044317;28;20025;-70
2021/01/19 05:04:27;;;;;;;12.30;6.47;;;8.80;77.10;;;;;;5025309;28;20103;-70
2021/01/19 05:07:11;;;;;;;16.85;6.32;;;8.90;77.20;;;;;;4994066;28;20360;-69
2021/01/19 05:09:50;;;;;;;15.77;6.72;;;8.90;77.10;;;;;;5042090;28;20040;-69
2021/01/19 05:12:23;;;;;;;12.85;7.22;;;8.90;77.20;;;;;;5052965;28;20032;-69
2021/01/19 05:14:53;;;;;;;10.98;5.70;;;8.90;76.80;;;;;;5044957;28;20113;-70
2021/01/19 05:17:22;;;;;;;9.13;6.05;;;8.90;76.80;;;;;;5051172;28;20038;-69
2021/01/19 05:19:51;;;;;;;16.38;7.00;;;8.90;77.10;;;;;;5047276;28;20112;-70
2021/01/19 05:22:19;;;;;;;15.70;6.68;;;8.90;77.20;;;;;;5033162;28;20044;-69
2021/01/19 05:24:45;;;;;;;12.93;6.68;;;8.90;77.80;;;;;;5045179;28;20057;-69
2021/01/19 05:27:13;;;;;;;10.43;5.72;;;8.90;77.40;;;;;;5035307;28;20101;-69
2021/01/19 05:29:39;;;;;;;11.50;6.28;;;8.80;77.90;;;;;;5029649;28;20025;-69
2021/01/19 05:32:05;;;;;;;10.70;6.15;;;9.00;77.40;;;;;;5047584;28;20035;-69
2021/01/19 05:34:36;;;;;;;10.30;5.55;;;9.00;77.60;;;;;;5025979;28;20030;-69
2021/01/19 05:37:02;;;;;;;9.45;6.07;;;8.90;78.00;;;;;;5037407;28;20112;-70
2021/01/19 05:39:27;;;;;;;8.30;5.13;;;8.90;78.10;;;;;;5041361;28;20121;-69
2021/01/19 05:41:55;;;;;;;14.15;6.03;;;9.10;77.50;;;;;;5035489;28;20547;-70
2021/01/19 05:44:25;;;;;;;10.00;6.03;;;9.00;78.00;;;;;;5035763;28;20039;-69
2021/01/19 05:47:01;;;;;;;9.90;4.63;;;9.00;77.70;;;;;;5015861;28;20125;-69
2021/01/19 05:49:32;;;;;;;8.75;5.65;;;9.00;77.80;;;;;;5023196;28;20045;-69
2021/01/19 05:52:00;;;;;;;9.40;5.13;;;9.00;78.30;;;;;;5030888;28;20045;-69
2021/01/19 05:54:47;;;;;;;8.63;4.78;;;9.00;78.00;;;;;;5049660;28;20036;-69
2021/01/19 05:57:14;;;;;;;7.72;4.90;;;8.90;79.10;;;;;;5049641;28;20187;-70
2021/01/19 05:59:45;;;;;;;10.30;5.07;;;9.00;78.40;;;;;;5050921;28;20041;-70
2021/01/19 06:02:15;;;;;;;16.95;6.15;;;9.00;78.60;;;;;;5050571;28;20025;-70
2021/01/19 06:04:49;;;;;;;11.18;5.95;;;9.00;78.20;;;;;;5030244;28;20026;-69
2021/01/19 06:07:23;;;;;;;8.13;4.68;;;9.00;78.70;;;;;;5042903;28;20116;-69
2021/01/19 06:09:50;;;;;;;8.90;5.57;;;9.10;78.20;;;;;;5032380;28;20085;-70
2021/01/19 06:12:19;;;;;;;12.55;5.00;;;9.00;78.70;;;;;;5043285;28;20040;-69
2021/01/19 06:14:52;;;;;;;10.82;5.60;;;9.20;78.10;;;;;;5031835;28;20477;-69
2021/01/19 06:17:22;;;;;;;9.07;6.07;;;9.10;78.60;;;;;;5028953;28;20052;-70
2021/01/19 06:19:58;;;;;;;9.40;5.05;;;9.20;78.00;;;;;;5036374;28;20024;-69
2021/01/19 06:22:25;;;;;;;10.57;5.47;;;9.20;78.10;;;;;;5032992;28;20416;-69
2021/01/19 06:25:02;;;;;;;7.97;4.90;;;9.20;78.60;;;;;;5038320;28;20075;-69
2021/01/19 06:27:33;;;;;;;9.82;5.25;;;9.10;78.80;;;;;;5044616;28;20055;-70
2021/01/19 06:29:58;;;;;;;7.53;4.75;;;9.20;78.60;;;;;;5032659;28;20355;-69
2021/01/19 06:32:25;;;;;;;7.10;4.60;;;9.20;78.60;;;;;;5044796;28;20021;-69
2021/01/19 06:34:51;;;;;;;7.55;4.70;;;9.20;78.70;;;;;;5032080;28;20432;-69
2021/01/19 06:37:28;;;;;;;9.35;4.78;;;9.20;79.20;;;;;;5051037;28;20044;-70
2021/01/19 06:39:58;;;;;;;7.18;4.03;;;9.10;79.00;;;;;;5024600;28;20040;-69
2021/01/19 06:42:31;;;;;;;6.88;4.43;;;9.20;79.10;;;;;;5040936;28;20024;-69
2021/01/19 06:44:59;;;;;;;;;;;9.10;79.60;;;;;;5052044;28;20203;-69
2021/01/19 06:47:25;;;;;;;7.18;4.00;;;9.20;79.60;;;;;;5050550;28;19959;-69
2021/01/19 06:49:53;;;;;;;7.38;4.60;;;9.20;79.40;;;;;;5036722;28;20132;-70
2021/01/19 06:52:20;;;;;;;6.93;4.50;;;9.30;79.20;;;;;;5027657;28;20424;-70
2021/01/19 06:54:55;;;;;;;7.28;4.72;;;9.30;79.20;;;;;;5050264;28;20116;-69
2021/01/19 06:57:32;;;;;;;6.72;4.20;;;9.20;79.80;;;;;;5031661;28;20478;-70
2021/01/19 07:00:20;;;;;;;8.35;4.72;;;9.20;79.80;;;;;;5052117;28;20362;-70
2021/01/19 07:02:51;;;;;;;11.30;5.47;;;9.20;80.00;;;;;;5069464;28;20017;-70
2021/01/19 07:05:20;;;;;;;6.90;4.45;;;9.20;79.80;;;;;;5062422;28;20787;-70
2021/01/19 07:08:18;;;;;;;7.45;4.57;;;9.40;79.40;;;;;;5055814;28;20601;-70
2021/01/19 07:11:01;;;;;;;7.70;4.63;;;9.30;79.90;;;;;;5062775;28;20073;-70
2021/01/19 07:13:27;;;;;;;7.65;4.55;;;9.50;79.00;;;;;;5067355;28;20043;-69
2021/01/19 07:16:04;;;;;;;6.85;4.00;;;9.50;79.50;;;;;;5056457;28;20029;-68
2021/01/19 07:18:42;;;;;;;7.63;4.20;;;9.60;78.80;;;;;;5057218;28;20040;-70
2021/01/19 07:21:13;;;;;;;12.13;5.07;;;9.60;78.90;;;;;;5054206;28;20421;-70
2021/01/19 07:23:55;;;;;;;8.50;5.15;;;9.60;78.80;;;;;;5050599;28;20435;-70
2021/01/19 07:26:35;;;;;;;7.60;5.00;;;9.60;78.70;;;;;;5050384;28;20029;-70
2021/01/19 07:29:01;;;;;;;6.95;4.03;;;9.60;79.40;;;;;;5053737;28;20037;-70
2021/01/19 07:31:27;;;;;;;7.80;4.82;;;9.60;78.90;;;;;;5061150;28;20463;-70
2021/01/19 07:33:54;;;;;;;8.95;4.50;;;9.50;79.40;;;;;;5061958;28;20024;-70
2021/01/19 07:36:22;;;;;;;7.05;4.43;;;9.50;79.70;;;;;;5062149;28;20029;-70
2021/01/19 07:38:49;;;;;;;8.57;4.90;;;9.50;79.80;;;;;;5060119;28;20036;-70
2021/01/19 07:41:36;;;;;;;7.88;4.72;;;9.60;79.40;;;;;;5049300;28;20037;-69
2021/01/19 07:44:02;;;;;;;7.30;4.47;;;9.60;79.60;;;;;;5062874;28;20108;-70
2021/01/19 07:46:29;;;;;;;7.05;4.63;;;9.50;80.10;;;;;;5070483;28;20036;-70
2021/01/19 07:49:06;;;;;;;10.98;4.90;;;9.50;80.20;;;;;;5053312;28;20033;-70
2021/01/19 07:52:07;;;;;;;8.23;4.07;;;9.50;80.30;;;;;;5050728;28;20117;-69
2021/01/19 07:54:35;;;;;;;7.43;4.03;;;9.50;80.50;;;;;;5067605;28;20021;-70
2021/01/19 07:57:10;;;;;;;8.38;4.50;;;9.60;80.00;;;;;;5064738;28;20056;-70
2021/01/19 07:59:37;;;;;;;8.27;4.72;;;9.60;80.10;;;;;;5031914;28;20335;-70
2021/01/19 08:02:02;;;;;;;9.43;5.35;;;9.60;80.60;;;;;;5049668;28;20033;-70
2021/01/19 08:04:30;;;;;;;6.63;4.15;;;9.60;80.60;;;;;;5041861;28;20037;-71
2021/01/19 08:06:56;;;;;;;7.65;3.80;;;9.60;80.70;;;;;;5037535;28;20108;-70
2021/01/19 08:09:23;;;;;;;6.78;3.65;;;9.60;80.70;;;;;;5017913;28;20143;-70
2021/01/19 08:12:17;;;;;;;8.68;4.13;;;9.70;80.70;;;;;;5047943;28;20033;-70
2021/01/19 08:14:44;;;;;;;7.30;3.67;;;9.80;80.10;;;;;;5044079;28;20030;-70
2021/01/19 08:17:11;;;;;;;6.28;3.78;;;9.80;80.10;;;;;;5028123;28;20037;-70
2021/01/19 08:19:40;;;;;;;6.32;3.63;;;9.70;80.60;;;;;;5047414;28;20152;-70
2021/01/19 08:22:06;;;;;;;7.55;3.67;;;9.80;80.60;;;;;;5030219;28;20029;-71
2021/01/19 08:24:31;;;;;;;7.75;4.07;;;9.80;80.20;;;;;;5048740;28;20037;-71
2021/01/19 08:26:57;;;;;;;6.72;3.80;;;9.80;80.80;;;;;;5036110;28;20082;-71
2021/01/19 08:29:24;;;;;;;5.90;3.40;;;9.80;80.70;;;;;;5039158;28;20096;-71
2021/01/19 08:31:54;;;;;;;7.80;3.90;;;9.80;80.70;;;;;;5042307;28;20033;-71
2021/01/19 08:34:21;;;;;;;8.98;3.85;;;9.90;80.50;;;;;;5036331;28;21775;-71
2021/01/19 08:36:48;;;;;;;7.30;3.88;;;9.90;80.50;;;;;;5018907;28;20543;-71
2021/01/19 08:39:16;;;;;;;6.50;3.30;;;9.90;80.60;;;;;;5043143;28;20040;-70
2021/01/19 08:41:48;;;;;;;5.97;3.55;;;9.90;81.20;;;;;;5035460;28;20036;-70
2021/01/19 08:44:14;;;;;;;7.20;4.07;;;9.90;81.40;;;;;;5049075;28;20443;-70
2021/01/19 08:46:41;;;;;;;7.03;4.03;;;9.90;81.50;;;;;;5046354;28;20423;-70
2021/01/19 08:49:14;;;;;;;6.28;3.67;;;9.90;81.50;;;;;;5045517;28;20033;-70
2021/01/19 08:51:45;;;;;;;;;;;9.90;81.50;;;;;;5041447;28;20025;-70
2021/01/19 08:54:11;;;;;;;6.72;3.70;;;10.10;80.70;;;;;;5021233;28;19967;-71
2021/01/19 08:56:39;;;;;;;7.22;3.88;;;10.00;81.20;;;;;;5025993;28;20049;-70
2021/01/19 08:59:05;;;;;;;6.22;3.83;;;10.00;81.40;;;;;;5031359;28;20037;-72
2021/01/19 09:01:30;;;;;;;7.82;4.40;;;10.10;81.10;;;;;;5049257;28;20025;-68
2021/01/19 09:04:01;;;;;;;10.77;4.47;;;10.20;81.00;;;;;;5030239;28;20471;-69
2021/01/19 09:06:28;;;;;;;10.15;4.97;;;10.10;81.50;;;;;;5044665;28;20115;-70
2021/01/19 09:08:58;;;;;;;7.30;4.20;;;10.10;81.50;;;;;;5023721;28;20037;-70
2021/01/19 09:11:30;;;;;;;6.45;3.90;;;10.20;81.10;;;;;;5038227;28;20033;-69
2021/01/19 09:14:23;;;;;;;8.55;5.18;;;10.10;81.60;;;;;;5041740;28;20527;-69
2021/01/19 09:16:53;;;;;;;7.20;4.30;;;10.10;82.00;;;;;;5038358;28;20091;-69
2021/01/19 09:19:19;;;;;;;6.35;3.88;;;10.20;81.70;;;;;;5034342;28;20437;-69
2021/01/19 09:21:44;;;;;;;9.30;4.20;;;10.20;81.80;;;;;;5044800;28;20482;-70
2021/01/19 09:24:20;;;;;;;6.70;3.92;;;10.20;81.90;;;;;;5032821;28;20034;-70
2021/01/19 09:27:00;;;;;;;7.15;3.70;;;10.20;82.70;;;;;;5051192;28;20110;-69
2021/01/19 09:29:28;;;;;;;9.40;4.15;;;10.20;82.20;;;;;;5052642;28;20091;-69
2021/01/19 09:31:54;;;;;;;6.55;4.10;;;10.50;82.10;;;;;;5033626;28;20047;-69
2021/01/19 09:34:20;;;;;;;6.55;3.88;;;10.30;82.00;;;;;;5049490;28;20029;-69
2021/01/19 09:36:50;;;;;;;6.28;3.75;;;10.20;82.50;;;;;;5031757;28;20386;-70
2021/01/19 09:39:29;;;;;;;8.52;3.70;;;10.30;81.80;;;;;;5034343;28;20045;-69
2021/01/19 09:41:57;;;;;;;6.18;3.65;;;10.30;81.80;;;;;;5040470;28;20090;-70
2021/01/19 09:44:23;;;;;;;6.53;3.50;;;10.40;81.80;;;;;;5040676;28;20128;-69
2021/01/19 09:46:54;;;;;;;6.80;4.05;;;10.40;81.80;;;;;;5017445;28;20034;-69
2021/01/19 09:49:22;;;;;;;8.25;3.58;;;10.40;82.10;;;;;;5043754;28;20033;-69
2021/01/19 09:51:48;;;;;;;7.82;4.68;;;10.40;82.00;;;;;;5052367;28;20087;-69
2021/01/19 09:54:23;;;;;;;8.27;4.38;;;10.50;82.10;;;;;;5049036;28;20475;-69
2021/01/19 09:56:56;;;;;;;8.75;3.83;;;10.30;82.50;;;;;;5045128;28;20532;-71
2021/01/19 09:59:25;;;;;;;18.95;5.88;;;10.50;82.60;;;;;;5041463;28;20030;-69
2021/01/19 10:01:51;;;;;;;6.65;4.13;;;10.50;82.50;;;;;;5015700;28;20758;-69
2021/01/19 10:04:18;;;;;;;7.45;4.30;;;10.60;81.90;;;;;;5042071;28;20187;-71
2021/01/19 10:06:45;;;;;;;7.78;5.13;;;10.60;83.10;;;;;;5046533;28;20044;-70
2021/01/19 10:09:20;;;;;;;9.93;5.65;;;10.60;82.70;;;;;;5043628;28;20029;-70
2021/01/19 10:11:45;;;;;;;7.38;5.20;;;10.50;82.90;;;;;;5024982;28;20025;-70
2021/01/19 10:14:17;;;;;;;8.07;4.85;;;10.50;83.00;;;;;;5041995;28;20096;-70
2021/01/19 10:16:53;;;;;;;8.73;5.63;;;10.60;82.80;;;;;;5050509;28;20529;-70
2021/01/19 10:19:31;;;;;;;7.53;4.97;;;10.60;83.50;;;;;;5041231;28;20061;-70
2021/01/19 10:22:02;;;;;;;9.27;4.97;;;10.60;83.40;;;;;;5040645;28;20033;-70
2021/01/19 10:24:27;;;;;;;7.03;4.63;;;10.70;83.20;;;;;;5040377;28;20017;-70
2021/01/19 10:27:02;;;;;;;8.18;4.63;;;10.80;83.00;;;;;;5049255;28;20040;-72
2021/01/19 10:29:30;;;;;;;8.80;5.20;;;10.70;83.60;;;;;;5031088;28;20529;-72
2021/01/19 10:32:00;;;;;;;9.55;5.88;;;10.90;83.20;;;;;;5042146;28;20033;-72
2021/01/19 10:34:27;;;;;;;10.35;6.40;;;10.80;83.70;;;;;;5038196;28;20129;-71
2021/01/19 10:36:54;;;;;;;8.68;5.53;;;10.50;83.20;;;;;;5037605;28;20029;-71
2021/01/19 10:39:20;;;;;;;8.27;5.53;;;11.00;83.30;;;;;;5035874;28;20423;-72
2021/01/19 10:41:47;;;;;;;8.73;5.75;;;10.90;83.80;;;;;;5040206;28;20032;-72
2021/01/19 10:44:14;;;;;;;10.93;6.43;;;11.00;83.60;;;;;;5043280;28;20467;-72
2021/01/19 10:46:41;;;;;;;10.85;6.22;;;11.10;83.20;;;;;;5036011;28;20026;-72
2021/01/19 10:49:10;;;;;;;9.52;6.53;;;11.20;83.30;;;;;;5030295;28;20483;-73
2021/01/19 10:51:36;;;;;;;10.30;6.55;;;11.20;83.50;;;;;;5031369;28;20114;-72
2021/01/19 10:54:13;;;;;;;9.23;7.03;;;11.30;83.40;;;;;;5049968;28;20055;-72
2021/01/19 10:56:41;;;;;;;12.57;7.93;;;11.30;83.20;;;;;;5042293;28;20052;-72
2021/01/19 10:59:07;;;;;;;10.18;6.55;;;11.40;83.50;;;;;;5050361;28;20122;-72
2021/01/19 11:01:34;;;;;;;10.60;6.70;;;11.40;84.00;;;;;;5045046;28;20459;-70
2021/01/19 11:04:00;;;;;;;12.75;6.93;;;11.30;84.40;;;;;;5042694;28;20040;-72
2021/01/19 11:06:37;;;;;;;9.60;5.15;;;11.40;84.40;;;;;;5044594;28;20036;-71
2021/01/19 11:09:06;;;;;;;10.98;6.90;;;11.40;84.20;;;;;;5050249;28;20037;-72
2021/01/19 11:11:35;;;;;;;9.98;5.43;;;11.50;84.30;;;;;;5049736;28;20053;-72
2021/01/19 11:14:05;;;;;;;8.98;5.38;;;11.50;84.50;;;;;;5043172;28;20343;-72
2021/01/19 11:16:32;;;;;;;8.90;4.57;;;11.50;85.00;;;;;;5036139;28;20104;-72
2021/01/19 11:18:59;;;;;;;8.45;5.32;;;11.60;84.90;;;;;;5027121;28;20037;-72
2021/01/19 11:21:25;;;;;;;9.15;5.05;;;11.70;84.90;;;;;;5049749;28;20457;-72
2021/01/19 11:23:51;;;;;;;8.30;4.90;;;11.80;84.90;;;;;;5047069;28;20040;-73
2021/01/19 11:26:17;;;;;;;8.07;4.00;;;11.80;84.90;;;;;;5033604;28;20052;-72
2021/01/19 11:28:43;;;;;;;7.07;3.80;;;11.80;85.50;;;;;;5047266;28;20037;-72
2021/01/19 11:31:09;;;;;;;6.65;3.65;;;11.80;85.50;;;;;;5031214;28;20040;-72
2021/01/19 11:33:34;;;;;;;7.32;4.35;;;11.90;85.50;;;;;;5049072;28;20411;-73
2021/01/19 11:36:00;;;;;;;7.07;4.32;;;11.90;85.50;;;;;;5049902;28;20037;-72
2021/01/19 11:38:25;;;;;;;8.52;4.60;;;12.00;85.40;;;;;;5050184;28;20051;-73
2021/01/19 11:40:51;;;;;;;7.07;4.05;;;12.00;85.50;;;;;;5050729;28;20048;-72
2021/01/19 11:43:17;;;;;;;7.00;4.15;;;11.90;86.00;;;;;;5049759;28;20044;-72
2021/01/19 11:45:43;;;;;;;9.05;4.78;;;12.00;85.90;;;;;;5032838;28;20037;-72
2021/01/19 11:48:09;;;;;;;7.30;4.30;;;12.20;85.10;;;;;;5033726;28;20030;-73
2021/01/19 11:50:37;;;;;;;7.63;4.32;;;12.10;85.60;;;;;;5029686;28;20060;-72
2021/01/19 11:53:03;;;;;;;8.07;4.55;;;12.10;85.70;;;;;;5022492;28;20025;-72
2021/01/19 11:55:28;;;;;;;8.60;4.38;;;12.10;85.80;;;;;;5049810;28;20051;-71
2021/01/19 11:57:54;;;;;;;10.80;5.30;;;12.20;85.40;;;;;;5043696;28;20518;-72
2021/01/19 12:00:20;;;;;;;8.80;4.88;;;12.20;85.30;;;;;;5047360;28;20033;-72
2021/01/19 12:02:45;;;;;;;7.80;4.63;;;12.20;85.80;;;;;;5041582;28;20490;-73
2021/01/19 12:05:12;;;;;;;8.38;4.75;;;12.30;85.30;;;;;;5011759;28;20033;-71
2021/01/19 12:07:39;;;;;;;8.32;5.18;;;12.30;85.30;;;;;;5044662;28;20510;-71
2021/01/19 12:10:06;;;;;;;8.85;4.60;;;12.40;85.30;;;;;;5042841;28;20612;-72
2021/01/19 12:12:32;;;;;;;9.25;5.75;;;12.30;85.30;;;;;;5030438;28;20052;-70
2021/01/19 12:14:58;;;;;;;10.98;5.35;;;12.40;85.50;;;;;;5014328;28;20139;-72
2021/01/19 12:17:23;;;;;;;8.35;5.15;;;12.40;85.40;;;;;;5032969;28;20044;-72
2021/01/19 12:19:49;;;;;;;8.45;5.25;;;12.50;85.20;;;;;;5030704;28;20029;-72
2021/01/19 12:22:14;;;;;;;8.35;4.93;;;12.50;85.20;;;;;;5047199;28;20037;-72
2021/01/19 12:24:40;;;;;;;9.77;5.20;;;12.40;85.40;;;;;;5030315;28;20399;-72
2021/01/19 12:27:06;;;;;;;9.68;5.18;;;12.50;85.50;;;;;;5012223;28;20131;-73
2021/01/19 12:29:32;;;;;;;8.45;5.35;;;12.50;85.50;;;;;;5041761;28;20040;-72
2021/01/19 12:32:04;;;;;;;9.93;5.72;;;12.50;85.50;;;;;;5030732;28;20091;-72
2021/01/19 12:34:29;;;;;;;11.35;7.70;;;12.50;85.60;;;;;;5041258;28;20028;-73
2021/01/19 12:36:55;;;;;;;14.73;7.18;;;12.50;85.70;;;;;;5025262;28;20961;-73
2021/01/19 12:39:21;;;;;;;14.10;7.20;;;12.50;85.80;;;;;;5013098;28;20033;-72
2021/01/19 12:41:46;;;;;;;14.45;7.53;;;12.60;85.80;;;;;;5034519;28;20033;-74
2021/01/19 12:44:14;;;;;;;12.52;7.43;;;12.50;86.90;;;;;;5035713;28;20064;-72
2021/01/19 12:46:39;;;;;;;14.75;7.90;;;12.60;85.80;;;;;;5037299;28;20076;-72
2021/01/19 12:49:06;;;;;;;15.93;8.50;;;12.60;85.80;;;;;;5046106;28;20037;-72
2021/01/19 12:51:31;;;;;;;14.68;7.88;;;12.60;85.90;;;;;;5030680;28;20032;-71
2021/01/19 12:53:57;;;;;;;12.23;7.90;;;12.60;86.00;;;;;;5030787;28;20475;-71
2021/01/19 12:56:23;;;;;;;15.50;8.20;;;12.60;86.10;;;;;;5049208;28;20534;-72
2021/01/19 12:58:49;;;;;;;14.40;7.90;;;12.50;86.60;;;;;;5045959;28;20092;-71
2021/01/19 13:01:15;;;;;;;11.73;7.28;;;12.70;86.10;;;;;;5015947;28;20065;-72